Terminal Aerodrome Forecast
Issued by NWS

Home | Current Version | Previous Version | Text Only | Print | Product List | Glossary On
Versions: 1 2 3 4 5 6 7 8 9 10 11 12 13 14 15
000
FTUS43 KLSX 210300 AAA
TAFCPS
TAF AMD
KCPS 210311Z 2103/2124 36007KT P6SM OVC015
     FM211400 33010KT P6SM BKN020
     FM211800 33010KT P6SM SCT050=

USA.gov is the U.S. government's official web portal to all federal, state and local government web resources and services.